sensor_id;sensor_type;location;lat;lon;timestamp;P1;durP1;ratioP1;P2;durP2;ratioP2
36597;SDS011;22607;49.550;11.940;2023-12-07T00:02:02;21.65;;;12.27;;
36597;SDS011;22607;49.550;11.940;2023-12-07T00:04:32;23.33;;;12.15;;
36597;SDS011;22607;49.550;11.940;2023-12-07T00:06:58;23.30;;;12.90;;
36597;SDS011;22607;49.550;11.940;2023-12-07T00:09:25;21.95;;;12.02;;
36597;SDS011;22607;49.550;11.940;2023-12-07T00:11:52;23.90;;;13.70;;
36597;SDS011;22607;49.550;11.940;2023-12-07T00:14:19;24.58;;;13.00;;
36597;SDS011;22607;49.550;11.940;2023-12-07T00:16:46;25.10;;;13.25;;
36597;SDS011;22607;49.550;11.940;2023-12-07T00:19:13;25.33;;;13.23;;
36597;SDS011;22607;49.550;11.940;2023-12-07T00:21:39;20.83;;;10.82;;
36597;SDS011;22607;49.550;11.940;2023-12-07T00:24:06;24.08;;;14.20;;
36597;SDS011;22607;49.550;11.940;2023-12-07T00:26:33;19.50;;;10.38;;
36597;SDS011;22607;49.550;11.940;2023-12-07T00:29:00;21.83;;;12.07;;
36597;SDS011;22607;49.550;11.940;2023-12-07T00:31:27;23.02;;;12.82;;
36597;SDS011;22607;49.550;11.940;2023-12-07T00:33:54;23.08;;;11.38;;
36597;SDS011;22607;49.550;11.940;2023-12-07T00:36:20;25.08;;;13.68;;
36597;SDS011;22607;49.550;11.940;2023-12-07T00:38:47;25.27;;;14.52;;
36597;SDS011;22607;49.550;11.940;2023-12-07T00:41:14;24.88;;;12.95;;
36597;SDS011;22607;49.550;11.940;2023-12-07T00:43:41;20.02;;;10.55;;
36597;SDS011;22607;49.550;11.940;2023-12-07T00:46:07;25.58;;;13.45;;
36597;SDS011;22607;49.550;11.940;2023-12-07T00:48:34;25.00;;;12.93;;
36597;SDS011;22607;49.550;11.940;2023-12-07T00:51:01;20.95;;;10.80;;
36597;SDS011;22607;49.550;11.940;2023-12-07T00:53:28;25.13;;;12.63;;
36597;SDS011;22607;49.550;11.940;2023-12-07T00:55:55;24.63;;;12.82;;
36597;SDS011;22607;49.550;11.940;2023-12-07T00:58:21;24.30;;;12.68;;
36597;SDS011;22607;49.550;11.940;2023-12-07T01:00:49;23.92;;;12.07;;
36597;SDS011;22607;49.550;11.940;2023-12-07T01:03:16;24.92;;;13.85;;
36597;SDS011;22607;49.550;11.940;2023-12-07T01:05:43;24.77;;;13.15;;
36597;SDS011;22607;49.550;11.940;2023-12-07T01:08:09;27.60;;;14.18;;
36597;SDS011;22607;49.550;11.940;2023-12-07T01:10:36;27.30;;;13.57;;
36597;SDS011;22607;49.550;11.940;2023-12-07T01:13:02;27.73;;;14.48;;
36597;SDS011;22607;49.550;11.940;2023-12-07T01:15:29;26.63;;;14.63;;
36597;SDS011;22607;49.550;11.940;2023-12-07T01:17:56;27.48;;;14.63;;
36597;SDS011;22607;49.550;11.940;2023-12-07T01:20:22;25.25;;;14.00;;
36597;SDS011;22607;49.550;11.940;2023-12-07T01:22:49;28.20;;;14.80;;
36597;SDS011;22607;49.550;11.940;2023-12-07T01:25:16;26.42;;;13.70;;
36597;SDS011;22607;49.550;11.940;2023-12-07T01:27:49;23.83;;;13.50;;
36597;SDS011;22607;49.550;11.940;2023-12-07T01:30:16;25.60;;;13.57;;
36597;SDS011;22607;49.550;11.940;2023-12-07T01:32:43;25.08;;;13.98;;
36597;SDS011;22607;49.550;11.940;2023-12-07T01:35:10;24.27;;;12.95;;
36597;SDS011;22607;49.550;11.940;2023-12-07T01:37:37;26.42;;;13.73;;
36597;SDS011;22607;49.550;11.940;2023-12-07T01:40:04;22.58;;;12.05;;
36597;SDS011;22607;49.550;11.940;2023-12-07T01:42:37;22.73;;;11.20;;
36597;SDS011;22607;49.550;11.940;2023-12-07T01:45:05;27.27;;;13.93;;
36597;SDS011;22607;49.550;11.940;2023-12-07T01:47:33;25.27;;;13.23;;
36597;SDS011;22607;49.550;11.940;2023-12-07T01:50:02;25.95;;;13.95;;
36597;SDS011;22607;49.550;11.940;2023-12-07T01:52:33;22.83;;;12.65;;
36597;SDS011;22607;49.550;11.940;2023-12-07T01:55:04;24.05;;;12.90;;
36597;SDS011;22607;49.550;11.940;2023-12-07T01:57:33;23.25;;;12.60;;
36597;SDS011;22607;49.550;11.940;2023-12-07T02:00:00;24.15;;;12.88;;
36597;SDS011;22607;49.550;11.940;2023-12-07T02:02:27;21.60;;;11.18;;
36597;SDS011;22607;49.550;11.940;2023-12-07T02:04:54;24.35;;;13.02;;
36597;SDS011;22607;49.550;11.940;2023-12-07T02:07:22;26.00;;;13.00;;
36597;SDS011;22607;49.550;11.940;2023-12-07T02:09:49;23.48;;;12.45;;
36597;SDS011;22607;49.550;11.940;2023-12-07T02:12:16;27.13;;;14.23;;
36597;SDS011;22607;49.550;11.940;2023-12-07T02:17:17;23.05;;;11.50;;
36597;SDS011;22607;49.550;11.940;2023-12-07T02:22:32;24.77;;;13.38;;
36597;SDS011;22607;49.550;11.940;2023-12-07T02:25:05;24.73;;;13.18;;
36597;SDS011;22607;49.550;11.940;2023-12-07T02:27:44;24.50;;;12.73;;
36597;SDS011;22607;49.550;11.940;2023-12-07T02:30:12;24.42;;;11.90;;
36597;SDS011;22607;49.550;11.940;2023-12-07T02:32:40;23.52;;;12.90;;
36597;SDS011;22607;49.550;11.940;2023-12-07T02:35:08;22.25;;;11.07;;
36597;SDS011;22607;49.550;11.940;2023-12-07T02:37:37;23.98;;;11.75;;
36597;SDS011;22607;49.550;11.940;2023-12-07T02:40:08;25.25;;;13.95;;
36597;SDS011;22607;49.550;11.940;2023-12-07T02:42:38;24.05;;;12.70;;
36597;SDS011;22607;49.550;11.940;2023-12-07T02:45:07;27.88;;;14.80;;
36597;SDS011;22607;49.550;11.940;2023-12-07T02:47:35;22.75;;;12.02;;
36597;SDS011;22607;49.550;11.940;2023-12-07T02:50:02;28.33;;;14.35;;
36597;SDS011;22607;49.550;11.940;2023-12-07T02:52:32;22.92;;;13.30;;
36597;SDS011;22607;49.550;11.940;2023-12-07T02:54:59;23.85;;;12.30;;
36597;SDS011;22607;49.550;11.940;2023-12-07T02:57:25;25.63;;;13.23;;
36597;SDS011;22607;49.550;11.940;2023-12-07T02:59:52;26.25;;;13.85;;
36597;SDS011;22607;49.550;11.940;2023-12-07T03:02:19;26.40;;;13.75;;
36597;SDS011;22607;49.550;11.940;2023-12-07T03:04:46;25.88;;;13.68;;
36597;SDS011;22607;49.550;11.940;2023-12-07T03:07:12;23.30;;;11.82;;
36597;SDS011;22607;49.550;11.940;2023-12-07T03:09:39;24.90;;;13.43;;
36597;SDS011;22607;49.550;11.940;2023-12-07T03:12:06;27.52;;;14.07;;
36597;SDS011;22607;49.550;11.940;2023-12-07T03:14:33;24.00;;;12.85;;
36597;SDS011;22607;49.550;11.940;2023-12-07T03:17:00;25.45;;;13.05;;
36597;SDS011;22607;49.550;11.940;2023-12-07T03:19:26;22.02;;;11.10;;
36597;SDS011;22607;49.550;11.940;2023-12-07T03:21:53;23.10;;;12.48;;
36597;SDS011;22607;49.550;11.940;2023-12-07T03:24:19;21.75;;;12.05;;
36597;SDS011;22607;49.550;11.940;2023-12-07T03:26:46;28.17;;;14.50;;
36597;SDS011;22607;49.550;11.940;2023-12-07T03:29:13;25.63;;;13.23;;
36597;SDS011;22607;49.550;11.940;2023-12-07T03:31:39;24.10;;;12.88;;
36597;SDS011;22607;49.550;11.940;2023-12-07T03:34:06;28.08;;;13.80;;
36597;SDS011;22607;49.550;11.940;2023-12-07T03:36:32;24.65;;;12.77;;
36597;SDS011;22607;49.550;11.940;2023-12-07T03:39:00;21.98;;;12.15;;
36597;SDS011;22607;49.550;11.940;2023-12-07T03:41:28;22.15;;;11.85;;
36597;SDS011;22607;49.550;11.940;2023-12-07T03:43:54;21.48;;;11.82;;
36597;SDS011;22607;49.550;11.940;2023-12-07T03:46:21;23.70;;;11.52;;
36597;SDS011;22607;49.550;11.940;2023-12-07T03:48:47;23.98;;;12.63;;
36597;SDS011;22607;49.550;11.940;2023-12-07T03:51:14;21.60;;;11.07;;
36597;SDS011;22607;49.550;11.940;2023-12-07T03:53:43;25.70;;;14.10;;
36597;SDS011;22607;49.550;11.940;2023-12-07T03:56:09;21.13;;;11.68;;
36597;SDS011;22607;49.550;11.940;2023-12-07T03:58:37;26.38;;;13.25;;
36597;SDS011;22607;49.550;11.940;2023-12-07T04:01:04;26.58;;;13.50;;
36597;SDS011;22607;49.550;11.940;2023-12-07T04:03:31;25.70;;;13.38;;
36597;SDS011;22607;49.550;11.940;2023-12-07T04:05:58;29.52;;;13.98;;
36597;SDS011;22607;49.550;11.940;2023-12-07T04:08:25;24.85;;;13.32;;
36597;SDS011;22607;49.550;11.940;2023-12-07T04:10:51;26.05;;;12.45;;
36597;SDS011;22607;49.550;11.940;2023-12-07T04:13:18;26.60;;;13.27;;
36597;SDS011;22607;49.550;11.940;2023-12-07T04:15:45;23.80;;;12.35;;
36597;SDS011;22607;49.550;11.940;2023-12-07T04:18:11;27.15;;;13.35;;
36597;SDS011;22607;49.550;11.940;2023-12-07T04:20:38;21.27;;;11.43;;
36597;SDS011;22607;49.550;11.940;2023-12-07T04:23:05;26.55;;;14.32;;
36597;SDS011;22607;49.550;11.940;2023-12-07T04:25:31;23.25;;;12.73;;
36597;SDS011;22607;49.550;11.940;2023-12-07T04:27:58;23.15;;;12.00;;
36597;SDS011;22607;49.550;11.940;2023-12-07T04:30:25;24.38;;;12.35;;
36597;SDS011;22607;49.550;11.940;2023-12-07T04:32:52;25.05;;;13.13;;
36597;SDS011;22607;49.550;11.940;2023-12-07T04:35:19;23.75;;;12.18;;
36597;SDS011;22607;49.550;11.940;2023-12-07T04:37:45;24.45;;;13.02;;
36597;SDS011;22607;49.550;11.940;2023-12-07T04:40:12;25.65;;;13.13;;
36597;SDS011;22607;49.550;11.940;2023-12-07T04:42:39;25.63;;;12.70;;
36597;SDS011;22607;49.550;11.940;2023-12-07T04:45:06;22.60;;;12.02;;
36597;SDS011;22607;49.550;11.940;2023-12-07T04:47:33;24.85;;;12.27;;
36597;SDS011;22607;49.550;11.940;2023-12-07T04:50:00;25.23;;;12.60;;
36597;SDS011;22607;49.550;11.940;2023-12-07T04:52:29;23.75;;;12.20;;
36597;SDS011;22607;49.550;11.940;2023-12-07T04:54:55;24.10;;;12.32;;
36597;SDS011;22607;49.550;11.940;2023-12-07T04:57:24;25.30;;;12.88;;
36597;SDS011;22607;49.550;11.940;2023-12-07T04:59:56;24.35;;;13.32;;
36597;SDS011;22607;49.550;11.940;2023-12-07T05:02:22;23.02;;;12.32;;
36597;SDS011;22607;49.550;11.940;2023-12-07T05:04:49;22.15;;;11.10;;
36597;SDS011;22607;49.550;11.940;2023-12-07T05:07:16;24.65;;;12.13;;
36597;SDS011;22607;49.550;11.940;2023-12-07T05:09:44;25.98;;;12.07;;
36597;SDS011;22607;49.550;11.940;2023-12-07T05:12:12;25.52;;;12.63;;
36597;SDS011;22607;49.550;11.940;2023-12-07T05:14:39;27.10;;;12.73;;
36597;SDS011;22607;49.550;11.940;2023-12-07T05:17:05;25.63;;;13.20;;
36597;SDS011;22607;49.550;11.940;2023-12-07T05:19:32;24.27;;;12.88;;
36597;SDS011;22607;49.550;11.940;2023-12-07T05:21:58;23.70;;;11.50;;
36597;SDS011;22607;49.550;11.940;2023-12-07T05:24:27;31.75;;;10.45;;
36597;SDS011;22607;49.550;11.940;2023-12-07T05:26:54;18.23;;;7.63;;
36597;SDS011;22607;49.550;11.940;2023-12-07T05:29:20;14.48;;;7.30;;
36597;SDS011;22607;49.550;11.940;2023-12-07T05:31:51;20.42;;;9.27;;
36597;SDS011;22607;49.550;11.940;2023-12-07T05:34:18;25.83;;;9.43;;
36597;SDS011;22607;49.550;11.940;2023-12-07T05:36:45;44.45;;;11.75;;
36597;SDS011;22607;49.550;11.940;2023-12-07T05:39:12;16.05;;;7.35;;
36597;SDS011;22607;49.550;11.940;2023-12-07T05:41:39;17.48;;;8.73;;
36597;SDS011;22607;49.550;11.940;2023-12-07T05:44:06;19.10;;;8.98;;
36597;SDS011;22607;49.550;11.940;2023-12-07T05:46:33;20.08;;;9.57;;
36597;SDS011;22607;49.550;11.940;2023-12-07T05:49:02;23.15;;;10.95;;
36597;SDS011;22607;49.550;11.940;2023-12-07T05:51:30;19.48;;;9.63;;
36597;SDS011;22607;49.550;11.940;2023-12-07T05:53:56;21.20;;;11.45;;
36597;SDS011;22607;49.550;11.940;2023-12-07T05:56:23;22.88;;;11.60;;
36597;SDS011;22607;49.550;11.940;2023-12-07T05:58:50;23.55;;;11.40;;
36597;SDS011;22607;49.550;11.940;2023-12-07T06:01:20;20.50;;;10.13;;
36597;SDS011;22607;49.550;11.940;2023-12-07T06:03:47;22.92;;;11.18;;
36597;SDS011;22607;49.550;11.940;2023-12-07T06:06:13;19.08;;;9.88;;
36597;SDS011;22607;49.550;11.940;2023-12-07T06:08:40;18.85;;;8.70;;
36597;SDS011;22607;49.550;11.940;2023-12-07T06:11:07;18.15;;;8.68;;
36597;SDS011;22607;49.550;11.940;2023-12-07T06:13:33;27.27;;;13.45;;
36597;SDS011;22607;49.550;11.940;2023-12-07T06:16:00;22.42;;;11.48;;
36597;SDS011;22607;49.550;11.940;2023-12-07T06:18:29;23.75;;;12.70;;
36597;SDS011;22607;49.550;11.940;2023-12-07T06:20:56;27.48;;;13.48;;
36597;SDS011;22607;49.550;11.940;2023-12-07T06:23:22;24.23;;;12.18;;
36597;SDS011;22607;49.550;11.940;2023-12-07T06:25:49;23.92;;;12.02;;
36597;SDS011;22607;49.550;11.940;2023-12-07T06:28:15;25.77;;;13.88;;
36597;SDS011;22607;49.550;11.940;2023-12-07T06:30:42;26.17;;;13.38;;
36597;SDS011;22607;49.550;11.940;2023-12-07T06:33:08;22.58;;;12.05;;
36597;SDS011;22607;49.550;11.940;2023-12-07T06:35:35;23.75;;;12.45;;
36597;SDS011;22607;49.550;11.940;2023-12-07T06:38:02;25.08;;;12.88;;
36597;SDS011;22607;49.550;11.940;2023-12-07T06:40:28;26.92;;;14.07;;
36597;SDS011;22607;49.550;11.940;2023-12-07T06:42:55;28.48;;;14.07;;
36597;SDS011;22607;49.550;11.940;2023-12-07T06:45:21;28.30;;;13.98;;
36597;SDS011;22607;49.550;11.940;2023-12-07T06:47:48;24.58;;;12.95;;
36597;SDS011;22607;49.550;11.940;2023-12-07T06:50:15;25.30;;;12.30;;
36597;SDS011;22607;49.550;11.940;2023-12-07T06:52:41;25.40;;;12.98;;
36597;SDS011;22607;49.550;11.940;2023-12-07T06:55:08;26.33;;;12.52;;
36597;SDS011;22607;49.550;11.940;2023-12-07T06:57:38;24.90;;;12.07;;
36597;SDS011;22607;49.550;11.940;2023-12-07T07:00:05;25.35;;;12.75;;
36597;SDS011;22607;49.550;11.940;2023-12-07T07:02:37;21.38;;;11.35;;
36597;SDS011;22607;49.550;11.940;2023-12-07T07:05:07;28.00;;;13.10;;
36597;SDS011;22607;49.550;11.940;2023-12-07T07:07:36;23.58;;;13.57;;
36597;SDS011;22607;49.550;11.940;2023-12-07T07:10:04;23.85;;;12.77;;
36597;SDS011;22607;49.550;11.940;2023-12-07T07:12:33;22.75;;;10.93;;
36597;SDS011;22607;49.550;11.940;2023-12-07T07:14:59;22.67;;;11.23;;
36597;SDS011;22607;49.550;11.940;2023-12-07T07:17:27;22.90;;;11.82;;
36597;SDS011;22607;49.550;11.940;2023-12-07T07:19:55;21.10;;;10.32;;
36597;SDS011;22607;49.550;11.940;2023-12-07T07:22:22;21.05;;;10.93;;
36597;SDS011;22607;49.550;11.940;2023-12-07T07:24:48;21.33;;;10.80;;
36597;SDS011;22607;49.550;11.940;2023-12-07T07:27:15;57.53;;;10.13;;
36597;SDS011;22607;49.550;11.940;2023-12-07T07:29:42;15.07;;;7.68;;
36597;SDS011;22607;49.550;11.940;2023-12-07T07:32:09;16.10;;;8.55;;
36597;SDS011;22607;49.550;11.940;2023-12-07T07:34:36;18.50;;;9.32;;
36597;SDS011;22607;49.550;11.940;2023-12-07T07:37:09;18.85;;;10.63;;
36597;SDS011;22607;49.550;11.940;2023-12-07T07:39:36;16.52;;;8.43;;
36597;SDS011;22607;49.550;11.940;2023-12-07T07:42:02;20.15;;;11.40;;
36597;SDS011;22607;49.550;11.940;2023-12-07T07:44:29;23.80;;;12.77;;
36597;SDS011;22607;49.550;11.940;2023-12-07T07:46:56;26.92;;;14.57;;
36597;SDS011;22607;49.550;11.940;2023-12-07T07:49:23;22.20;;;11.43;;
36597;SDS011;22607;49.550;11.940;2023-12-07T07:51:50;21.38;;;11.00;;
36597;SDS011;22607;49.550;11.940;2023-12-07T07:54:17;22.05;;;11.02;;
36597;SDS011;22607;49.550;11.940;2023-12-07T07:56:45;21.13;;;10.25;;
36597;SDS011;22607;49.550;11.940;2023-12-07T07:59:11;26.35;;;13.88;;
36597;SDS011;22607;49.550;11.940;2023-12-07T08:01:38;23.83;;;13.43;;
36597;SDS011;22607;49.550;11.940;2023-12-07T08:04:05;24.08;;;11.93;;
36597;SDS011;22607;49.550;11.940;2023-12-07T08:06:31;21.85;;;11.32;;
36597;SDS011;22607;49.550;11.940;2023-12-07T08:09:02;24.83;;;11.32;;
36597;SDS011;22607;49.550;11.940;2023-12-07T08:11:29;18.65;;;9.80;;
36597;SDS011;22607;49.550;11.940;2023-12-07T08:13:57;21.80;;;11.35;;
36597;SDS011;22607;49.550;11.940;2023-12-07T08:16:30;20.13;;;10.93;;
36597;SDS011;22607;49.550;11.940;2023-12-07T08:18:57;21.33;;;11.02;;
36597;SDS011;22607;49.550;11.940;2023-12-07T08:21:25;19.63;;;10.38;;
36597;SDS011;22607;49.550;11.940;2023-12-07T08:23:56;21.08;;;10.93;;
36597;SDS011;22607;49.550;11.940;2023-12-07T08:26:23;21.65;;;11.52;;
36597;SDS011;22607;49.550;11.940;2023-12-07T08:28:49;19.77;;;9.90;;
36597;SDS011;22607;49.550;11.940;2023-12-07T08:31:20;19.90;;;10.80;;
36597;SDS011;22607;49.550;11.940;2023-12-07T08:33:52;20.33;;;10.52;;
36597;SDS011;22607;49.550;11.940;2023-12-07T08:36:19;25.10;;;12.52;;
36597;SDS011;22607;49.550;11.940;2023-12-07T08:38:47;22.85;;;10.73;;
36597;SDS011;22607;49.550;11.940;2023-12-07T08:41:13;20.77;;;11.20;;
36597;SDS011;22607;49.550;11.940;2023-12-07T08:43:40;21.48;;;12.25;;
36597;SDS011;22607;49.550;11.940;2023-12-07T08:46:08;17.70;;;9.45;;
36597;SDS011;22607;49.550;11.940;2023-12-07T08:48:38;15.35;;;8.07;;
36597;SDS011;22607;49.550;11.940;2023-12-07T08:51:08;16.23;;;8.77;;
36597;SDS011;22607;49.550;11.940;2023-12-07T08:53:35;17.20;;;9.68;;
36597;SDS011;22607;49.550;11.940;2023-12-07T08:56:02;17.75;;;8.68;;
36597;SDS011;22607;49.550;11.940;2023-12-07T08:58:34;19.88;;;10.30;;
36597;SDS011;22607;49.550;11.940;2023-12-07T09:01:01;22.98;;;12.02;;
36597;SDS011;22607;49.550;11.940;2023-12-07T09:03:28;23.85;;;12.63;;
36597;SDS011;22607;49.550;11.940;2023-12-07T09:05:59;21.08;;;12.18;;
36597;SDS011;22607;49.550;11.940;2023-12-07T09:08:30;20.60;;;12.02;;
36597;SDS011;22607;49.550;11.940;2023-12-07T09:10:57;24.05;;;11.88;;
36597;SDS011;22607;49.550;11.940;2023-12-07T09:13:24;19.27;;;11.18;;
36597;SDS011;22607;49.550;11.940;2023-12-07T09:15:51;21.00;;;10.15;;
36597;SDS011;22607;49.550;11.940;2023-12-07T09:18:18;18.98;;;8.38;;
36597;SDS011;22607;49.550;11.940;2023-12-07T09:20:45;18.77;;;10.38;;
36597;SDS011;22607;49.550;11.940;2023-12-07T09:23:12;20.30;;;11.13;;
36597;SDS011;22607;49.550;11.940;2023-12-07T09:25:42;20.70;;;11.65;;
36597;SDS011;22607;49.550;11.940;2023-12-07T09:30:39;20.95;;;11.07;;
36597;SDS011;22607;49.550;11.940;2023-12-07T09:33:06;20.13;;;10.68;;
36597;SDS011;22607;49.550;11.940;2023-12-07T09:35:32;18.67;;;10.23;;
36597;SDS011;22607;49.550;11.940;2023-12-07T09:38:01;18.58;;;11.02;;
36597;SDS011;22607;49.550;11.940;2023-12-07T09:40:29;18.13;;;9.15;;
36597;SDS011;22607;49.550;11.940;2023-12-07T09:42:56;17.92;;;9.98;;
36597;SDS011;22607;49.550;11.940;2023-12-07T09:45:25;19.08;;;10.55;;
36597;SDS011;22607;49.550;11.940;2023-12-07T09:47:54;16.65;;;9.15;;
36597;SDS011;22607;49.550;11.940;2023-12-07T09:50:22;17.23;;;9.65;;
36597;SDS011;22607;49.550;11.940;2023-12-07T09:52:56;18.95;;;9.90;;
36597;SDS011;22607;49.550;11.940;2023-12-07T09:55:34;18.70;;;9.82;;
36597;SDS011;22607;49.550;11.940;2023-12-07T09:58:04;18.63;;;10.10;;
36597;SDS011;22607;49.550;11.940;2023-12-07T10:00:34;18.60;;;10.73;;
36597;SDS011;22607;49.550;11.940;2023-12-07T10:03:02;19.52;;;10.57;;
36597;SDS011;22607;49.550;11.940;2023-12-07T10:05:28;16.08;;;9.35;;
36597;SDS011;22607;49.550;11.940;2023-12-07T10:07:55;17.48;;;9.55;;
36597;SDS011;22607;49.550;11.940;2023-12-07T10:10:30;16.38;;;8.43;;
36597;SDS011;22607;49.550;11.940;2023-12-07T10:12:58;19.45;;;10.05;;
36597;SDS011;22607;49.550;11.940;2023-12-07T10:15:26;16.95;;;9.65;;
36597;SDS011;22607;49.550;11.940;2023-12-07T10:17:58;16.02;;;8.82;;
36597;SDS011;22607;49.550;11.940;2023-12-07T10:23:01;15.95;;;8.45;;
36597;SDS011;22607;49.550;11.940;2023-12-07T10:25:33;15.25;;;8.48;;
36597;SDS011;22607;49.550;11.940;2023-12-07T10:28:08;16.85;;;9.27;;
36597;SDS011;22607;49.550;11.940;2023-12-07T10:30:40;15.48;;;8.70;;
36597;SDS011;22607;49.550;11.940;2023-12-07T10:35:39;32.60;;;17.40;;
36597;SDS011;22607;49.550;11.940;2023-12-07T10:38:07;20.73;;;12.32;;
36597;SDS011;22607;49.550;11.940;2023-12-07T10:40:34;16.25;;;8.45;;
36597;SDS011;22607;49.550;11.940;2023-12-07T10:43:02;16.10;;;8.10;;
36597;SDS011;22607;49.550;11.940;2023-12-07T10:45:31;15.95;;;8.43;;
36597;SDS011;22607;49.550;11.940;2023-12-07T10:48:06;17.23;;;8.95;;
36597;SDS011;22607;49.550;11.940;2023-12-07T10:50:35;18.63;;;10.05;;
36597;SDS011;22607;49.550;11.940;2023-12-07T10:53:09;17.38;;;10.38;;
36597;SDS011;22607;49.550;11.940;2023-12-07T10:56:00;17.48;;;8.05;;
36597;SDS011;22607;49.550;11.940;2023-12-07T10:58:27;14.95;;;8.13;;
36597;SDS011;22607;49.550;11.940;2023-12-07T11:00:55;16.95;;;9.77;;
36597;SDS011;22607;49.550;11.940;2023-12-07T11:03:24;21.73;;;9.60;;
36597;SDS011;22607;49.550;11.940;2023-12-07T11:05:52;13.52;;;7.90;;
36597;SDS011;22607;49.550;11.940;2023-12-07T11:08:33;15.05;;;9.23;;
36597;SDS011;22607;49.550;11.940;2023-12-07T11:14:05;16.90;;;9.68;;
36597;SDS011;22607;49.550;11.940;2023-12-07T11:16:36;13.63;;;7.93;;
36597;SDS011;22607;49.550;11.940;2023-12-07T11:19:04;15.13;;;8.85;;
36597;SDS011;22607;49.550;11.940;2023-12-07T11:21:38;15.52;;;8.50;;
36597;SDS011;22607;49.550;11.940;2023-12-07T11:24:05;14.85;;;8.40;;
36597;SDS011;22607;49.550;11.940;2023-12-07T11:26:32;13.25;;;6.85;;
36597;SDS011;22607;49.550;11.940;2023-12-07T11:28:59;12.40;;;6.95;;
36597;SDS011;22607;49.550;11.940;2023-12-07T11:31:25;13.88;;;7.60;;
36597;SDS011;22607;49.550;11.940;2023-12-07T11:36:23;13.30;;;7.88;;
36597;SDS011;22607;49.550;11.940;2023-12-07T11:39:24;15.85;;;9.35;;
36597;SDS011;22607;49.550;11.940;2023-12-07T11:41:55;13.75;;;6.60;;
36597;SDS011;22607;49.550;11.940;2023-12-07T11:44:37;28.38;;;16.08;;
36597;SDS011;22607;49.550;11.940;2023-12-07T11:47:05;14.88;;;7.90;;
36597;SDS011;22607;49.550;11.940;2023-12-07T11:49:33;12.95;;;7.00;;
36597;SDS011;22607;49.550;11.940;2023-12-07T11:52:15;16.50;;;7.30;;
36597;SDS011;22607;49.550;11.940;2023-12-07T11:54:43;12.52;;;6.43;;
36597;SDS011;22607;49.550;11.940;2023-12-07T11:57:14;10.93;;;6.40;;
36597;SDS011;22607;49.550;11.940;2023-12-07T11:59:45;15.45;;;7.05;;
36597;SDS011;22607;49.550;11.940;2023-12-07T12:02:15;12.98;;;6.47;;
36597;SDS011;22607;49.550;11.940;2023-12-07T12:04:42;12.82;;;6.10;;
36597;SDS011;22607;49.550;11.940;2023-12-07T12:07:10;10.77;;;6.00;;
36597;SDS011;22607;49.550;11.940;2023-12-07T12:09:37;10.25;;;5.43;;
36597;SDS011;22607;49.550;11.940;2023-12-07T12:12:04;11.90;;;5.97;;
36597;SDS011;22607;49.550;11.940;2023-12-07T12:14:30;11.23;;;6.10;;
36597;SDS011;22607;49.550;11.940;2023-12-07T12:16:57;13.20;;;6.72;;
36597;SDS011;22607;49.550;11.940;2023-12-07T12:19:24;11.35;;;5.38;;
36597;SDS011;22607;49.550;11.940;2023-12-07T12:22:02;11.13;;;6.00;;
36597;SDS011;22607;49.550;11.940;2023-12-07T12:27:11;12.95;;;7.15;;
36597;SDS011;22607;49.550;11.940;2023-12-07T12:29:39;15.13;;;7.70;;
36597;SDS011;22607;49.550;11.940;2023-12-07T12:32:08;16.30;;;9.52;;
36597;SDS011;22607;49.550;11.940;2023-12-07T12:34:35;15.23;;;8.52;;
36597;SDS011;22607;49.550;11.940;2023-12-07T12:37:03;17.00;;;9.43;;
36597;SDS011;22607;49.550;11.940;2023-12-07T12:39:33;12.60;;;6.78;;
36597;SDS011;22607;49.550;11.940;2023-12-07T12:42:04;18.63;;;10.68;;
36597;SDS011;22607;49.550;11.940;2023-12-07T12:44:32;15.45;;;9.23;;
36597;SDS011;22607;49.550;11.940;2023-12-07T12:49:38;17.50;;;9.15;;
36597;SDS011;22607;49.550;11.940;2023-12-07T12:52:11;16.85;;;7.30;;
36597;SDS011;22607;49.550;11.940;2023-12-07T12:57:10;16.27;;;9.18;;
36597;SDS011;22607;49.550;11.940;2023-12-07T12:59:36;17.00;;;8.10;;
36597;SDS011;22607;49.550;11.940;2023-12-07T13:02:03;14.52;;;8.02;;
36597;SDS011;22607;49.550;11.940;2023-12-07T13:04:30;19.33;;;9.32;;
36597;SDS011;22607;49.550;11.940;2023-12-07T13:07:07;16.92;;;9.10;;
36597;SDS011;22607;49.550;11.940;2023-12-07T13:09:34;11.55;;;6.22;;
36597;SDS011;22607;49.550;11.940;2023-12-07T13:12:00;18.63;;;7.57;;
36597;SDS011;22607;49.550;11.940;2023-12-07T13:14:32;14.73;;;7.80;;
36597;SDS011;22607;49.550;11.940;2023-12-07T13:17:05;15.27;;;8.77;;
36597;SDS011;22607;49.550;11.940;2023-12-07T13:19:34;16.83;;;8.70;;
36597;SDS011;22607;49.550;11.940;2023-12-07T13:22:02;16.17;;;7.35;;
36597;SDS011;22607;49.550;11.940;2023-12-07T13:24:32;14.27;;;8.00;;
36597;SDS011;22607;49.550;11.940;2023-12-07T13:26:59;17.00;;;9.02;;
36597;SDS011;22607;49.550;11.940;2023-12-07T13:29:27;16.00;;;8.30;;
36597;SDS011;22607;49.550;11.940;2023-12-07T13:32:10;16.95;;;8.00;;
36597;SDS011;22607;49.550;11.940;2023-12-07T13:34:36;16.42;;;8.27;;
36597;SDS011;22607;49.550;11.940;2023-12-07T13:37:04;14.35;;;6.57;;
36597;SDS011;22607;49.550;11.940;2023-12-07T13:39:31;13.27;;;6.50;;
36597;SDS011;22607;49.550;11.940;2023-12-07T13:41:58;14.13;;;6.40;;
36597;SDS011;22607;49.550;11.940;2023-12-07T13:44:30;12.30;;;6.07;;
36597;SDS011;22607;49.550;11.940;2023-12-07T13:46:59;15.23;;;7.80;;
36597;SDS011;22607;49.550;11.940;2023-12-07T13:49:26;13.35;;;6.68;;
36597;SDS011;22607;49.550;11.940;2023-12-07T13:52:00;13.48;;;7.18;;
36597;SDS011;22607;49.550;11.940;2023-12-07T13:54:36;14.50;;;8.05;;
36597;SDS011;22607;49.550;11.940;2023-12-07T13:57:05;14.68;;;6.82;;
36597;SDS011;22607;49.550;11.940;2023-12-07T13:59:32;15.15;;;8.65;;
36597;SDS011;22607;49.550;11.940;2023-12-07T14:01:58;16.45;;;8.88;;
36597;SDS011;22607;49.550;11.940;2023-12-07T14:04:26;17.55;;;9.55;;
36597;SDS011;22607;49.550;11.940;2023-12-07T14:07:06;18.00;;;9.23;;
36597;SDS011;22607;49.550;11.940;2023-12-07T14:09:36;15.77;;;8.55;;
36597;SDS011;22607;49.550;11.940;2023-12-07T14:12:18;18.27;;;9.93;;
36597;SDS011;22607;49.550;11.940;2023-12-07T14:14:46;18.15;;;9.90;;
36597;SDS011;22607;49.550;11.940;2023-12-07T14:17:16;19.92;;;9.07;;
36597;SDS011;22607;49.550;11.940;2023-12-07T14:19:53;20.35;;;12.18;;
36597;SDS011;22607;49.550;11.940;2023-12-07T14:22:35;21.63;;;12.38;;
36597;SDS011;22607;49.550;11.940;2023-12-07T14:25:02;22.17;;;12.35;;
36597;SDS011;22607;49.550;11.940;2023-12-07T14:27:30;18.35;;;9.93;;
36597;SDS011;22607;49.550;11.940;2023-12-07T14:29:56;21.27;;;11.55;;
36597;SDS011;22607;49.550;11.940;2023-12-07T14:32:23;18.95;;;8.85;;
36597;SDS011;22607;49.550;11.940;2023-12-07T14:34:50;22.48;;;12.32;;
36597;SDS011;22607;49.550;11.940;2023-12-07T14:37:19;20.83;;;10.88;;
36597;SDS011;22607;49.550;11.940;2023-12-07T14:39:45;21.20;;;12.80;;
36597;SDS011;22607;49.550;11.940;2023-12-07T14:42:12;20.38;;;11.00;;
36597;SDS011;22607;49.550;11.940;2023-12-07T14:44:41;20.63;;;10.80;;
36597;SDS011;22607;49.550;11.940;2023-12-07T14:47:07;20.25;;;11.95;;